Spokane, WA (99216)

6:04 PM PDT on September 22, 2014 (GMT -0700)
Broadway Ave | Change Station
CLOSE
Current Station
Personal Weather Station
Location: Veradale, WA
Elevation: 2057 ft
Nearby Weather Stations

Elev 2057 ft 47.66 °N, 117.19 °W | Updated 11 seconds ago

Partly Cloudy
Partly Cloudy
77.4 °F
Feels Like 77 °F
N
0.0
Wind Variable Wind from South
Gusts 0.0 mph

Today
High -- | Low -- °F
--% Chance of Precip.
Yesterday
High -- | Low -- °F
Precip. -- in
6:35 AM 6:46 PM
Waning Crescent, 1% visible
Pressure 29.86 in
Visibility 10.0 miles
Clouds Clear
Heat Index 77 °F
Dew Point 31 °F
Humidity 18%
Rainfall 0.00 in
Snow Depth 0 in , 0 in , 0 in
UV 0 out of 12
Pollen 7.30 out of 12
PM2.5 Good
Flu Activity Not available.
METAR KSFF 230053Z 25007KT 10SM CLR 28/08 A2989 RMK AO2 SLP109 T02780078

More Conditions Fewer Conditions

Pressure 29.86 in
Visibility 10.0 miles
Clouds Clear
Heat Index 77 °F
Dew Point 31 °F
Humidity 18%
Rainfall 0.00 in
Snow Depth 0 in , 0 in , 0 in
UV 0 out of 12
Pollen 7.30 out of 12
PM2.5 Good
Flu Activity Not available.
METAR KSFF 230053Z 25007KT 10SM CLR 28/08 A2989 RMK AO2 SLP109 T02780078

More Conditions Fewer Conditions

10-Day Weather Forecast

Almanac

Astronomy

Sep. 22, 2014 Rise Set
Actual Time 6:35 AM PDT 6:46 PM PDT
Civil Twilight 6:04 AM PDT 7:17 PM PDT
Nautical Twilight 5:28 AM PDT 7:53 PM PDT
Astronomical Twilight 4:51 AM PDT 8:30 PM PDT
Moon 5:04 AM PDT (9/22) 5:58 PM PDT (9/22)
Length of Visible Light 13h 12m
Length of Day
12h 10m
Tomorrow will be 3m 24s shorter.
Waning Crescent, 1% of the Moon is Illuminated
Today
Waning Crescent
Sep 24
New
Oct 1
First Quarter
Oct 8
Full
Oct 15
Last Quarter

Today's Extremes

State Highs State Lows

Community

WunderPhotos

Upload Photos

1,755,579 photos uploaded!

Nearby

Air Quality

  Air Quality AQ Index Pollutant
Yesterday Good
PM10
Yesterday Good
OZONE
Current Good
PM2.5
Monday Good
PM10
Monday Good
OZONE
Tuesday Good
PM10
Tuesday Good
OZONE

Snow Depth

Station Depth Elevation
Stampede Pass 0 in 3860 ft
Grouse Camp 0 in 5380 ft
Trough 0 in 5300 ft
Touchet 0 in 5530 ft
Park Creek Ridge 0 in 4600 ft

Earthquake Activity

City Distance Mag. Time & Date
No recent earthquake activity has been reported nearby.
Minimum magnitude displayed is 2.5.

Coastal Water Temperatures

Place Temperature
No Stations Reporting

Nearby Weather Stations